Time;durP1;ratioP1;P1;durP2;ratioP2;P2;SDS_P1;SDS_P2;PMS_P1;PMS_P2;Temp;Humidity;BMP_temperature;BMP_pressure;BME280_temperature;BME280_humidity;BME280_pressure;Samples;Min_cycle;Max_cycle;Signal;HPM_P1;HPM_P2
2022/04/26 03:38:08;;;;;;;15.23;11.37;;;9.80;99.90;;;;;;5035994;28;20242;-85
2022/04/26 03:40:34;;;;;;;11.67;10.50;;;9.80;99.90;;;;;;5019120;28;20182;-85
2022/04/26 03:43:02;;;;;;;13.20;11.90;;;9.80;99.90;;;;;;5035751;28;20188;-85
2022/04/26 03:45:28;;;;;;;12.53;11.23;;;9.80;99.90;;;;;;5018704;28;20216;-85
2022/04/26 03:47:54;;;;;;;13.40;12.07;;;9.80;99.90;;;;;;5018784;28;20182;-85
2022/04/26 03:50:21;;;;;;;12.53;11.23;;;9.80;99.90;;;;;;5018979;28;20260;-85
2022/04/26 03:52:52;;;;;;;11.90;10.70;;;9.80;99.90;;;;;;5019092;28;20178;-85
2022/04/26 03:55:20;;;;;;;12.73;11.53;;;9.80;99.90;;;;;;5018505;28;20296;-85
2022/04/26 03:57:46;;;;;;;12.43;11.23;;;9.80;99.90;;;;;;5018553;28;20189;-85
2022/04/26 04:00:38;;;;;;;12.33;11.13;;;9.80;99.90;;;;;;5035079;28;20182;-85
2022/04/26 04:03:19;;;;;;;13.83;11.90;;;9.80;99.90;;;;;;5018413;28;20228;-85
2022/04/26 04:05:44;;;;;;;14.10;12.23;;;9.80;99.90;;;;;;5018936;28;20206;-85
2022/04/26 04:08:10;;;;;;;12.50;11.10;;;9.80;99.90;;;;;;5026689;28;20181;-85
2022/04/26 04:10:36;;;;;;;13.13;11.73;;;9.90;99.90;;;;;;5038438;28;20177;-85
2022/04/26 04:13:02;;;;;;;13.27;11.97;;;9.90;99.90;;;;;;5038309;28;20181;-85
2022/04/26 04:15:28;;;;;;;12.20;11.00;;;9.90;99.90;;;;;;5038287;28;20257;-85
2022/04/26 04:17:54;;;;;;;12.90;11.60;;;9.90;99.90;;;;;;5038030;28;20188;-86
2022/04/26 04:20:20;;;;;;;12.93;11.10;;;9.90;99.90;;;;;;5037678;28;20263;-86
2022/04/26 04:22:48;;;;;;;12.17;10.93;;;9.90;99.90;;;;;;5038406;28;20194;-86
2022/04/26 04:25:15;;;;;;;13.07;11.53;;;9.90;99.90;;;;;;5038567;28;20249;-86
2022/04/26 04:27:42;;;;;;;13.03;11.73;;;9.90;99.90;;;;;;5038589;28;20239;-86
2022/04/26 04:30:09;;;;;;;12.80;11.50;;;9.90;99.90;;;;;;5038604;28;20230;-86
2022/04/26 04:32:35;;;;;;;13.43;12.03;;;9.90;99.90;;;;;;5055305;28;20222;-86
2022/04/26 04:35:00;;;;;;;13.20;11.90;;;9.90;99.90;;;;;;5037815;28;20204;-86
2022/04/26 04:37:26;;;;;;;14.27;12.77;;;9.90;99.90;;;;;;5024397;28;20212;-86
2022/04/26 04:39:52;;;;;;;14.10;12.37;;;9.90;99.90;;;;;;5018441;28;20181;-86
2022/04/26 04:42:19;;;;;;;12.93;11.63;;;9.90;99.90;;;;;;5027495;28;20192;-86
2022/04/26 04:44:45;;;;;;;13.77;12.37;;;9.80;99.90;;;;;;5054660;28;20267;-86
2022/04/26 04:47:11;;;;;;;13.93;12.47;;;9.90;99.90;;;;;;5037623;28;20189;-86
2022/04/26 04:49:37;;;;;;;13.20;11.53;;;9.90;99.90;;;;;;5038204;28;20177;-86
2022/04/26 04:52:31;;;;;;;13.20;11.83;;;9.90;99.90;;;;;;5055026;28;20680;-86
2022/04/26 04:55:24;;;;;;;12.80;11.40;;;9.90;99.90;;;;;;5039716;28;20687;-86
2022/04/26 04:57:50;;;;;;;12.77;11.50;;;10.00;99.90;;;;;;5037780;28;20192;-85
2022/04/26 05:00:16;;;;;;;13.57;12.17;;;9.90;99.90;;;;;;5020259;28;20182;-86
2022/04/26 05:02:42;;;;;;;13.53;11.43;;;10.00;99.90;;;;;;5026941;28;20177;-85
2022/04/26 05:05:09;;;;;;;14.00;12.23;;;10.00;99.90;;;;;;5036939;28;20214;-86
2022/04/26 05:07:36;;;;;;;12.77;11.47;;;10.00;99.90;;;;;;5022417;28;20193;-86
2022/04/26 05:10:03;;;;;;;13.17;11.77;;;10.00;99.90;;;;;;5034331;28;20663;-86
2022/04/26 05:12:29;;;;;;;13.70;12.27;;;10.00;99.90;;;;;;5034158;28;20174;-86
2022/04/26 05:14:55;;;;;;;13.47;11.63;;;10.00;99.90;;;;;;5034208;28;20262;-86
2022/04/26 05:17:21;;;;;;;13.77;12.37;;;9.90;99.90;;;;;;5017750;28;20193;-86
2022/04/26 05:19:47;;;;;;;13.93;12.47;;;9.90;99.90;;;;;;5034243;28;20250;-86
2022/04/26 05:22:14;;;;;;;15.07;12.27;;;9.90;99.90;;;;;;5018080;28;20182;-86
2022/04/26 05:24:58;;;;;;;13.17;11.77;;;10.00;99.90;;;;;;5017849;28;20252;-86
2022/04/26 05:27:26;;;;;;;12.33;11.10;;;10.00;99.90;;;;;;5019081;28;20166;-86
2022/04/26 05:29:53;;;;;;;12.90;11.50;;;10.00;99.90;;;;;;5021157;28;20201;-86
2022/04/26 05:32:27;;;;;;;13.67;12.27;;;10.00;99.90;;;;;;5021439;28;20198;-86
2022/04/26 05:35:11;;;;;;;12.63;11.30;;;9.90;99.90;;;;;;5037466;28;20217;-86
2022/04/26 05:37:37;;;;;;;13.00;11.13;;;9.90;99.90;;;;;;5036819;28;20221;-86
2022/04/26 05:40:03;;;;;;;14.20;10.87;;;9.90;99.90;;;;;;5040900;28;20177;-86
2022/04/26 05:42:30;;;;;;;12.70;11.13;;;9.90;99.90;;;;;;5040819;28;20185;-86
2022/04/26 05:44:57;;;;;;;13.07;11.23;;;9.90;99.90;;;;;;5040755;28;20224;-86
2022/04/26 05:47:23;;;;;;;13.47;12.07;;;9.80;99.90;;;;;;5041117;28;20234;-86
2022/04/26 05:49:49;;;;;;;14.07;12.60;;;9.90;99.90;;;;;;5040919;28;20214;-86
2022/04/26 05:52:15;;;;;;;12.50;11.20;;;9.90;99.90;;;;;;5040834;28;20634;-86
2022/04/26 05:54:41;;;;;;;12.50;11.17;;;9.90;99.90;;;;;;5040670;28;20243;-86
2022/04/26 05:57:06;;;;;;;12.57;11.27;;;9.90;99.90;;;;;;5057291;28;20177;-86
2022/04/26 05:59:32;;;;;;;11.30;10.20;;;10.00;99.90;;;;;;5040795;28;20238;-86
2022/04/26 06:01:58;;;;;;;12.40;11.00;;;10.00;99.90;;;;;;5040554;28;20262;-85
2022/04/26 06:04:27;;;;;;;11.37;10.00;;;10.00;99.90;;;;;;5040651;28;20220;-85
2022/04/26 06:06:53;;;;;;;11.80;9.93;;;10.00;99.90;;;;;;5030747;28;20181;-86
2022/04/26 06:09:19;;;;;;;10.80;9.63;;;10.00;99.90;;;;;;5036962;28;20166;-86
2022/04/26 06:11:46;;;;;;;10.77;9.67;;;10.00;99.90;;;;;;5020689;28;20223;-86
2022/04/26 06:14:14;;;;;;;11.67;9.93;;;10.00;99.90;;;;;;5037739;28;20197;-86
2022/04/26 06:16:40;;;;;;;12.83;10.53;;;10.00;99.90;;;;;;5021453;28;20182;-88
2022/04/26 06:19:07;;;;;;;11.83;10.37;;;9.90;99.90;;;;;;5021242;28;20240;-87
2022/04/26 06:21:33;;;;;;;10.00;9.00;;;10.00;99.90;;;;;;5021240;28;20228;-86
2022/04/26 06:23:59;;;;;;;10.10;9.07;;;10.00;99.90;;;;;;5020629;28;20240;-86
2022/04/26 06:26:25;;;;;;;9.13;8.03;;;10.00;99.90;;;;;;5036951;28;20189;-86
2022/04/26 06:28:51;;;;;;;9.40;8.40;;;10.00;99.90;;;;;;5020192;28;20565;-86
2022/04/26 06:31:17;;;;;;;8.47;7.67;;;10.00;99.90;;;;;;5020188;28;20182;-86
2022/04/26 06:33:43;;;;;;;8.27;7.47;;;10.00;99.90;;;;;;5019923;28;20185;-86
2022/04/26 06:36:08;;;;;;;8.27;7.37;;;10.00;99.90;;;;;;5016859;28;20186;-86
2022/04/26 06:38:34;;;;;;;7.87;7.07;;;10.10;99.90;;;;;;4999329;28;20198;-86
2022/04/26 06:41:01;;;;;;;8.10;7.30;;;10.10;99.90;;;;;;5000032;28;20587;-86
2022/04/26 06:43:29;;;;;;;7.27;6.57;;;10.10;99.90;;;;;;4999199;28;20197;-86
2022/04/26 06:45:55;;;;;;;8.03;6.67;;;10.10;99.90;;;;;;5000178;28;20171;-86
2022/04/26 06:48:21;;;;;;;6.90;6.20;;;10.00;99.90;;;;;;5000515;28;20177;-86
2022/04/26 06:50:47;;;;;;;7.37;6.67;;;10.00;99.90;;;;;;4999832;28;20171;-86
2022/04/26 06:53:13;;;;;;;6.83;6.23;;;10.00;99.90;;;;;;5000384;28;20278;-86
2022/04/26 06:55:39;;;;;;;6.53;5.63;;;10.00;99.90;;;;;;5000168;28;20202;-86
2022/04/26 06:58:06;;;;;;;6.10;5.50;;;10.10;99.90;;;;;;5000445;28;20183;-86
2022/04/26 07:00:32;;;;;;;6.33;5.73;;;10.00;99.90;;;;;;5016074;28;20198;-86
2022/04/26 07:02:58;;;;;;;7.30;5.83;;;10.00;99.90;;;;;;4999941;28;20277;-86
2022/04/26 07:05:24;;;;;;;6.97;6.17;;;10.10;99.90;;;;;;4999969;28;20297;-86
2022/04/26 07:07:52;;;;;;;6.53;5.63;;;10.20;99.90;;;;;;5017032;28;20231;-86
2022/04/26 07:10:19;;;;;;;6.70;6.10;;;10.30;99.90;;;;;;5019695;28;20186;-86
2022/04/26 07:12:45;;;;;;;6.43;5.77;;;10.40;99.90;;;;;;5019336;28;20227;-86
2022/04/26 07:15:11;;;;;;;6.80;6.10;;;10.50;99.90;;;;;;5019243;28;20201;-86
2022/04/26 07:17:46;;;;;;;7.10;6.40;;;10.60;99.90;;;;;;5019190;28;20182;-86
2022/04/26 07:20:12;;;;;;;7.03;6.33;;;10.70;99.90;;;;;;5019125;28;20173;-86
2022/04/26 07:22:38;;;;;;;6.93;6.33;;;10.70;99.90;;;;;;5019284;28;20585;-86
2022/04/26 07:25:09;;;;;;;7.40;6.70;;;10.70;99.90;;;;;;5019005;28;20229;-86
2022/04/26 07:27:35;;;;;;;7.53;6.07;;;10.70;99.90;;;;;;5019454;28;20269;-86
2022/04/26 07:30:03;;;;;;;7.23;6.53;;;10.80;99.90;;;;;;5018884;28;20269;-85
2022/04/26 07:35:13;;;;;;;6.90;6.20;;;11.10;99.90;;;;;;5035394;28;20663;-86
2022/04/26 07:37:40;;;;;;;6.33;5.73;;;11.20;99.90;;;;;;5003163;28;20294;-86
2022/04/26 07:40:07;;;;;;;7.13;6.43;;;11.20;99.90;;;;;;4999041;28;20709;-87
2022/04/26 07:42:33;;;;;;;6.70;6.10;;;11.20;99.90;;;;;;4998788;28;20188;-86
2022/04/26 07:44:59;;;;;;;7.40;6.00;;;11.20;99.90;;;;;;4999087;28;20214;-86
2022/04/26 07:47:26;;;;;;;5.83;5.33;;;11.20;99.90;;;;;;4999356;28;20554;-86
2022/04/26 07:49:53;;;;;;;5.80;5.20;;;11.20;99.90;;;;;;4998962;28;20266;-86
2022/04/26 07:52:20;;;;;;;6.63;5.57;;;11.10;99.90;;;;;;4999311;28;20175;-86
2022/04/26 07:54:46;;;;;;;7.50;5.97;;;11.10;99.90;;;;;;4999179;28;20230;-86
2022/04/26 07:57:13;;;;;;;6.10;5.50;;;11.10;99.90;;;;;;4999286;28;20189;-86
2022/04/26 07:59:39;;;;;;;6.00;5.50;;;11.10;99.90;;;;;;4998814;28;20174;-86
2022/04/26 08:02:09;;;;;;;6.23;5.63;;;11.10;99.90;;;;;;4999163;28;20195;-86
2022/04/26 08:04:36;;;;;;;6.33;5.73;;;11.10;99.90;;;;;;4998833;28;20361;-86
2022/04/26 08:07:02;;;;;;;6.30;5.70;;;11.20;99.90;;;;;;4999360;28;20187;-86
2022/04/26 08:09:28;;;;;;;8.03;6.23;;;11.30;99.90;;;;;;4999044;28;20188;-86
2022/04/26 08:11:54;;;;;;;6.07;5.47;;;11.30;99.90;;;;;;4999104;28;20180;-86
2022/04/26 08:14:20;;;;;;;6.30;5.70;;;11.40;99.90;;;;;;4998962;28;20204;-86
2022/04/26 08:16:46;;;;;;;5.87;5.30;;;11.40;99.90;;;;;;4998856;28;20301;-86
2022/04/26 08:19:12;;;;;;;7.37;5.33;;;11.50;99.90;;;;;;4998496;28;20186;-86
2022/04/26 08:21:39;;;;;;;5.60;5.10;;;11.50;99.90;;;;;;5015342;28;20180;-86
2022/04/26 08:29:34;;;;;;;6.30;5.27;;;11.80;99.90;;;;;;5014872;28;20192;-86
2022/04/26 08:32:00;;;;;;;6.37;4.70;;;11.90;99.90;;;;;;5015147;28;20234;-86
2022/04/26 08:34:26;;;;;;;7.20;4.87;;;11.90;99.90;;;;;;4998655;28;20209;-86
2022/04/26 08:36:52;;;;;;;5.63;5.00;;;12.00;99.90;;;;;;5024220;28;20222;-86
2022/04/26 08:39:20;;;;;;;7.00;5.20;;;12.00;99.90;;;;;;5017764;28;20176;-86
2022/04/26 08:41:45;;;;;;;6.27;4.80;;;12.00;99.90;;;;;;5018477;28;20181;-86
2022/04/26 08:44:12;;;;;;;5.13;4.60;;;12.00;99.90;;;;;;5018083;28;20266;-86
2022/04/26 08:52:10;;;;;;;6.57;5.30;;;12.10;99.90;;;;;;5034518;28;20209;-86
2022/04/26 08:54:36;;;;;;;6.07;5.47;;;12.10;99.90;;;;;;5034333;28;20212;-86
2022/04/26 08:57:02;;;;;;;6.33;5.73;;;12.10;99.90;;;;;;5017965;28;20189;-86
2022/04/26 08:59:30;;;;;;;7.63;6.07;;;12.00;99.90;;;;;;5034391;28;20175;-86
2022/04/26 09:02:16;;;;;;;6.10;5.20;;;11.90;99.90;;;;;;5018117;28;20268;-86
2022/04/26 09:04:42;;;;;;;7.43;5.67;;;12.00;99.90;;;;;;5021705;28;20327;-86
2022/04/26 09:07:26;;;;;;;6.40;5.80;;;12.00;99.90;;;;;;5010535;28;20193;-86
2022/04/26 09:10:12;;;;;;;6.43;5.80;;;12.10;99.90;;;;;;5002099;28;20177;-86
2022/04/26 09:13:04;;;;;;;5.83;5.20;;;12.30;99.90;;;;;;5018978;28;20646;-86
2022/04/26 09:15:43;;;;;;;6.03;5.30;;;12.40;99.90;;;;;;5024161;28;20304;-85
2022/04/26 09:18:17;;;;;;;9.17;5.30;;;12.50;99.90;;;;;;5003590;28;20186;-86
2022/04/26 09:20:48;;;;;;;7.03;4.93;;;12.70;99.90;;;;;;5002287;28;20197;-86
2022/04/26 09:23:33;;;;;;;4.93;4.43;;;12.80;99.90;;;;;;5001986;28;20186;-86
2022/04/26 09:26:06;;;;;;;6.30;4.77;;;12.90;99.90;;;;;;5001804;28;20710;-86
2022/04/26 09:28:39;;;;;;;4.60;4.20;;;13.00;99.90;;;;;;5018010;28;20166;-86
2022/04/26 09:31:23;;;;;;;7.73;4.07;;;13.00;99.90;;;;;;5001623;28;20181;-86
2022/04/26 09:33:56;;;;;;;7.30;4.63;;;13.20;99.90;;;;;;5001653;28;20289;-86
2022/04/26 09:36:25;;;;;;;5.77;4.33;;;13.40;99.90;;;;;;5023504;28;20191;-86
2022/04/26 09:38:55;;;;;;;10.43;4.33;;;13.50;99.90;;;;;;5037464;28;20182;-86
2022/04/26 09:41:23;;;;;;;4.33;3.93;;;13.60;99.90;;;;;;5037751;28;20177;-86
2022/04/26 09:44:06;;;;;;;5.80;4.00;;;13.50;99.90;;;;;;5020970;28;20206;-86
2022/04/26 09:46:53;;;;;;;7.73;4.37;;;13.60;99.90;;;;;;5021087;28;20178;-86
2022/04/26 09:49:21;;;;;;;6.50;3.70;;;13.80;99.90;;;;;;5020822;28;20182;-86
2022/04/26 09:51:51;;;;;;;6.70;4.37;;;13.90;99.90;;;;;;5021032;28;20232;-86
2022/04/26 09:54:18;;;;;;;5.03;3.93;;;14.00;99.90;;;;;;5021007;28;20252;-86
2022/04/26 09:56:45;;;;;;;4.53;4.03;;;14.10;99.90;;;;;;5020799;28;20181;-86
2022/04/26 09:59:15;;;;;;;4.73;3.43;;;14.20;99.90;;;;;;5020972;28;20189;-86
2022/04/26 10:01:47;;;;;;;8.23;4.03;;;14.40;99.90;;;;;;5037297;28;20182;-86
2022/04/26 10:04:20;;;;;;;5.53;3.70;;;14.50;99.90;;;;;;5020881;28;20221;-86
2022/04/26 10:06:49;;;;;;;5.57;4.00;;;14.70;99.90;;;;;;5012077;28;20183;-86
2022/04/26 10:09:16;;;;;;;5.30;4.10;;;14.80;99.90;;;;;;5000758;28;20237;-86
2022/04/26 10:11:42;;;;;;;4.83;3.93;;;15.00;99.90;;;;;;5000852;28;20205;-86
2022/04/26 10:14:10;;;;;;;4.93;3.60;;;15.00;99.90;;;;;;5000677;28;20769;-86
2022/04/26 10:16:38;;;;;;;5.87;4.00;;;15.10;99.90;;;;;;5001256;28;20183;-86
2022/04/26 10:19:12;;;;;;;4.93;4.00;;;15.10;99.90;;;;;;5000914;28;20191;-83
2022/04/26 10:21:38;;;;;;;5.53;3.47;;;15.20;99.90;;;;;;5001821;28;20210;-82
2022/04/26 10:24:21;;;;;;;4.17;3.60;;;15.50;99.90;;;;;;5004201;28;20244;-83
2022/04/26 10:26:49;;;;;;;4.40;4.00;;;15.80;99.90;;;;;;5008941;28;20186;-81
2022/04/26 10:29:16;;;;;;;4.03;3.63;;;16.00;99.90;;;;;;5016263;28;20217;-81
2022/04/26 10:31:49;;;;;;;5.60;3.93;;;15.80;99.90;;;;;;5031325;28;20179;-82
2022/04/26 10:34:17;;;;;;;4.10;3.70;;;15.40;99.90;;;;;;5036722;28;20292;-85
2022/04/26 10:36:47;;;;;;;5.20;3.97;;;14.90;99.90;;;;;;5024634;28;20186;-85
2022/04/26 10:39:12;;;;;;;5.20;3.70;;;14.70;99.90;;;;;;5044589;28;20248;-85
2022/04/26 10:41:40;;;;;;;4.53;4.10;;;14.20;99.90;;;;;;5000384;28;20270;-87
2022/04/26 10:44:13;;;;;;;5.67;4.37;;;13.90;99.90;;;;;;5000312;28;20210;-85
2022/04/26 10:46:40;;;;;;;5.43;4.00;;;13.80;99.90;;;;;;5016672;28;20273;-85
2022/04/26 10:49:24;;;;;;;5.40;3.93;;;14.00;99.90;;;;;;5000076;28;20179;-85
2022/04/26 10:51:57;;;;;;;4.10;3.70;;;14.10;99.90;;;;;;4999915;28;20706;-85
2022/04/26 10:55:03;;;;;;;4.00;3.60;;;14.10;99.90;;;;;;4999471;28;20439;-85
2022/04/26 10:57:39;;;;;;;7.40;4.37;;;14.00;99.90;;;;;;5000148;28;20236;-85
2022/04/26 11:00:16;;;;;;;7.83;4.10;;;14.10;99.90;;;;;;5039360;28;20173;-85
2022/04/26 11:02:44;;;;;;;5.40;3.80;;;14.20;99.90;;;;;;5055101;28;20204;-85
2022/04/26 11:05:27;;;;;;;5.20;3.73;;;14.30;99.90;;;;;;5054378;28;20213;-85
2022/04/26 11:08:16;;;;;;;5.50;3.93;;;14.60;99.90;;;;;;5018109;28;20178;-85
2022/04/26 11:11:00;;;;;;;5.23;4.03;;;14.90;99.90;;;;;;5015882;28;20171;-85
2022/04/26 11:13:35;;;;;;;5.67;4.20;;;15.00;99.90;;;;;;5016137;28;20550;-85
2022/04/26 11:16:09;;;;;;;5.33;4.00;;;14.90;99.90;;;;;;5016263;28;20178;-85
2022/04/26 11:18:37;;;;;;;4.93;3.60;;;14.80;99.90;;;;;;5059252;28;20169;-85
2022/04/26 11:21:06;;;;;;;5.93;4.03;;;14.90;99.90;;;;;;5021119;28;20174;-85
2022/04/26 11:29:25;;;;;;;5.13;3.70;;;15.00;99.90;;;;;;5044966;28;20182;-85
2022/04/26 11:31:51;;;;;;;5.33;3.50;;;14.70;99.90;;;;;;5028182;28;20521;-85
2022/04/26 11:34:17;;;;;;;5.23;3.53;;;14.50;99.90;;;;;;5037265;28;20212;-85
2022/04/26 11:36:43;;;;;;;5.30;3.17;;;14.40;99.90;;;;;;5021596;28;20821;-85
2022/04/26 11:39:09;;;;;;;7.03;4.47;;;14.50;99.90;;;;;;5053789;28;20181;-85
2022/04/26 11:41:36;;;;;;;4.27;3.23;;;14.60;99.90;;;;;;5039019;28;20186;-85
2022/04/26 11:44:06;;;;;;;3.87;2.80;;;14.60;99.90;;;;;;5027207;28;20202;-85
2022/04/26 11:46:33;;;;;;;2.60;2.40;;;14.20;99.90;;;;;;5014642;28;20175;-85
2022/04/26 11:49:00;;;;;;;5.30;2.93;;;13.90;99.90;;;;;;5017966;28;20167;-85
2022/04/26 11:51:26;;;;;;;3.90;2.80;;;13.70;99.90;;;;;;5035186;28;20180;-85
2022/04/26 11:53:53;;;;;;;3.37;2.47;;;13.60;99.90;;;;;;5018091;28;20224;-85
2022/04/26 11:56:21;;;;;;;3.07;2.37;;;13.30;99.90;;;;;;5020471;28;20186;-85
2022/04/26 11:58:47;;;;;;;2.80;2.50;;;13.20;99.90;;;;;;5020628;28;20200;-85
2022/04/26 12:01:18;;;;;;;3.00;2.57;;;13.30;99.90;;;;;;5040154;28;20545;-85
2022/04/26 12:03:54;;;;;;;2.73;2.33;;;13.40;99.90;;;;;;5038815;28;20192;-85
2022/04/26 12:06:24;;;;;;;3.13;2.47;;;13.40;99.90;;;;;;5033883;28;20239;-85
2022/04/26 12:08:58;;;;;;;4.37;3.10;;;13.60;99.90;;;;;;5006130;28;20174;-85
2022/04/26 12:11:27;;;;;;;3.73;3.20;;;13.60;99.90;;;;;;5031761;28;20191;-85
2022/04/26 12:14:17;;;;;;;3.20;2.87;;;13.50;99.90;;;;;;5018788;28;20694;-85
2022/04/26 12:16:49;;;;;;;3.77;3.03;;;12.90;99.90;;;;;;5036948;28;20188;-84
2022/04/26 12:19:16;;;;;;;3.40;3.10;;;12.70;99.90;;;;;;5020556;28;20195;-83
2022/04/26 12:21:56;;;;;;;3.20;2.90;;;12.60;99.90;;;;;;5031036;28;20192;-82
2022/04/26 12:24:26;;;;;;;4.67;2.70;;;12.30;99.90;;;;;;5032525;28;20264;-83
2022/04/26 12:27:12;;;;;;;4.70;4.20;;;12.20;99.90;;;;;;5024884;28;20545;-83
2022/04/26 12:29:55;;;;;;;4.63;3.13;;;12.00;99.90;;;;;;5034853;28;20172;-88
2022/04/26 12:32:27;;;;;;;4.13;1.90;;;12.10;99.90;;;;;;5012015;28;20189;-84
2022/04/26 12:34:56;;;;;;;3.30;3.00;;;12.20;99.90;;;;;;5034607;28;20207;-84
2022/04/26 12:37:23;;;;;;;2.63;2.13;;;12.40;99.90;;;;;;5021307;28;20275;-84
2022/04/26 12:40:06;;;;;;;2.60;1.90;;;12.40;99.90;;;;;;5018508;28;20224;-84
2022/04/26 12:42:35;;;;;;;2.80;2.13;;;12.50;99.90;;;;;;5019311;28;20192;-84
2022/04/26 12:45:24;;;;;;;2.20;1.70;;;12.40;99.90;;;;;;5027677;28;20212;-84
2022/04/26 12:51:17;;;;;;;2.33;2.00;;;12.50;99.90;;;;;;5035052;28;20244;-85
2022/04/26 12:53:45;;;;;;;1.90;1.80;;;12.40;99.90;;;;;;5021114;28;20185;-85
2022/04/26 12:56:12;;;;;;;2.10;1.87;;;12.30;99.90;;;;;;5022724;28;20185;-84
2022/04/26 12:58:40;;;;;;;3.80;2.30;;;12.10;99.90;;;;;;5052582;28;20188;-85
2022/04/26 13:01:07;;;;;;;3.87;3.00;;;12.20;99.90;;;;;;5051761;28;20176;-85
2022/04/26 13:03:35;;;;;;;3.30;3.00;;;12.20;99.90;;;;;;5016167;28;20191;-85
2022/04/26 13:06:17;;;;;;;3.37;3.07;;;12.20;99.90;;;;;;5019080;28;20171;-85
2022/04/26 13:08:48;;;;;;;3.50;3.20;;;12.30;99.90;;;;;;5002716;28;20188;-85
2022/04/26 13:11:18;;;;;;;4.00;3.40;;;12.30;99.90;;;;;;5014895;28;20202;-85
2022/04/26 13:13:46;;;;;;;5.17;3.33;;;12.40;99.90;;;;;;5021341;28;20681;-85
2022/04/26 13:16:12;;;;;;;4.00;3.50;;;12.60;99.90;;;;;;5022641;28;20186;-79
2022/04/26 13:18:38;;;;;;;5.00;3.53;;;12.90;99.90;;;;;;5036366;28;20169;-77
2022/04/26 13:21:05;;;;;;;4.47;4.07;;;13.50;99.90;;;;;;5012969;28;20210;-78
2022/04/26 13:23:34;;;;;;;7.33;4.67;;;14.00;99.90;;;;;;5036736;28;20189;-78
2022/04/26 13:26:01;;;;;;;8.17;4.87;;;14.30;99.90;;;;;;5023747;28;20248;-79
2022/04/26 13:28:28;;;;;;;6.33;4.20;;;14.70;99.90;;;;;;5024564;28;20647;-79
2022/04/26 13:30:55;;;;;;;5.23;4.30;;;14.90;99.90;;;;;;5022768;28;20178;-80
2022/04/26 13:33:21;;;;;;;6.07;4.50;;;15.10;99.90;;;;;;5020620;28;20189;-86
2022/04/26 13:35:47;;;;;;;6.10;4.13;;;15.40;99.90;;;;;;5044053;28;20205;-89
2022/04/26 13:38:14;;;;;;;5.83;4.63;;;15.70;99.90;;;;;;5002463;28;20190;-89
2022/04/26 13:40:42;;;;;;;4.63;2.97;;;15.60;99.90;;;;;;5016634;28;20185;-93
2022/04/26 13:43:08;;;;;;;3.50;2.77;;;15.40;99.90;;;;;;5022665;28;20189;-90
2022/04/26 13:49:41;;;;;;;3.70;3.00;;;14.30;99.90;;;;;;5051205;28;20232;-89
2022/04/26 13:52:09;;;;;;;2.97;2.67;;;13.70;99.90;;;;;;5023816;28;20166;-89
2022/04/26 13:54:37;;;;;;;3.97;3.53;;;13.30;99.90;;;;;;5022931;28;20209;-90
2022/04/26 13:57:05;;;;;;;3.43;3.13;;;13.20;99.90;;;;;;5021345;28;20178;-86
2022/04/26 13:59:31;;;;;;;3.97;3.43;;;12.80;99.90;;;;;;5037378;28;20704;-88
2022/04/26 14:01:57;;;;;;;3.57;3.27;;;12.70;99.90;;;;;;5019600;28;20182;-88
2022/04/26 14:04:24;;;;;;;5.23;3.97;;;12.70;99.90;;;;;;5018393;28;20212;-88
2022/04/26 14:06:50;;;;;;;5.00;4.30;;;12.60;99.90;;;;;;5020780;28;20185;-88
2022/04/26 14:09:21;;;;;;;5.57;4.97;;;12.50;99.90;;;;;;5020817;28;20614;-88
2022/04/26 14:11:47;;;;;;;6.07;5.07;;;12.50;99.90;;;;;;5019489;28;20257;-89
2022/04/26 14:22:32;;;;;;;5.97;4.77;;;11.90;99.90;;;;;;5036955;28;20188;-88
2022/04/26 14:25:03;;;;;;;6.37;5.10;;;12.00;99.90;;;;;;5020314;28;20221;-89
2022/04/26 14:27:31;;;;;;;6.47;5.07;;;12.10;99.90;;;;;;5020686;28;20178;-88
2022/04/26 14:30:00;;;;;;;6.20;5.20;;;12.10;99.90;;;;;;5014843;28;20189;-88
2022/04/26 14:32:26;;;;;;;6.30;4.70;;;12.20;99.90;;;;;;5015043;28;20182;-88
2022/04/26 14:34:58;;;;;;;6.73;4.53;;;12.30;99.90;;;;;;5029811;28;20205;-88
2022/04/26 14:37:24;;;;;;;5.27;4.77;;;12.30;99.90;;;;;;5027036;28;20197;-88
2022/04/26 14:43:48;;;;;;;7.20;5.10;;;12.60;99.90;;;;;;5051016;28;20209;-88
2022/04/26 14:46:14;;;;;;;6.13;5.00;;;12.80;99.90;;;;;;5017646;28;20235;-88
2022/04/26 14:48:40;;;;;;;6.00;4.90;;;12.90;99.90;;;;;;5017040;28;20186;-88
2022/04/26 14:51:06;;;;;;;6.80;5.97;;;13.00;99.90;;;;;;5017767;28;20177;-88
2022/04/26 14:53:32;;;;;;;8.37;5.97;;;13.10;99.90;;;;;;5020585;28;20244;-88
2022/04/26 14:55:59;;;;;;;5.60;5.00;;;13.10;99.90;;;;;;5021588;28;20181;-88
2022/04/26 14:58:25;;;;;;;5.33;4.83;;;13.10;99.90;;;;;;5025854;28;20246;-88
2022/04/26 15:00:52;;;;;;;6.83;5.77;;;13.00;99.90;;;;;;5030893;28;20193;-88
2022/04/26 15:03:18;;;;;;;6.57;5.77;;;13.00;99.90;;;;;;5030345;28;20189;-88
2022/04/26 15:05:44;;;;;;;5.60;5.10;;;13.00;99.90;;;;;;5018948;28;20210;-88
2022/04/26 15:11:36;;;;;;;5.73;5.23;;;12.70;99.90;;;;;;5043372;28;20188;-88
2022/04/26 15:16:49;;;;;;;5.23;4.73;;;12.60;99.90;;;;;;5032117;28;20174;-88
2022/04/26 15:19:15;;;;;;;8.27;6.37;;;12.60;99.90;;;;;;5030253;28;20193;-87
2022/04/26 15:21:43;;;;;;;6.60;5.37;;;12.80;99.90;;;;;;5033517;28;20189;-88
2022/04/26 15:24:11;;;;;;;5.27;4.83;;;13.00;99.90;;;;;;5022032;28;20213;-88
2022/04/26 15:26:44;;;;;;;5.20;4.70;;;13.20;99.90;;;;;;5021318;28;20170;-88
2022/04/26 15:29:12;;;;;;;5.67;5.17;;;13.30;99.90;;;;;;5045563;28;20190;-88
2022/04/26 15:31:38;;;;;;;5.53;5.03;;;13.40;99.90;;;;;;5041611;28;20164;-86
2022/04/26 15:34:04;;;;;;;6.00;5.33;;;13.40;99.90;;;;;;5027894;28;20201;-86
2022/04/26 15:36:31;;;;;;;6.40;5.30;;;13.30;99.90;;;;;;5001504;28;20261;-87
2022/04/26 15:38:58;;;;;;;11.07;7.10;;;13.30;99.90;;;;;;5035466;28;20753;-86
2022/04/26 15:41:25;;;;;;;7.20;5.23;;;13.30;99.90;;;;;;5022370;28;20174;-86
2022/04/26 15:43:52;;;;;;;9.80;6.83;;;13.30;99.90;;;;;;5043145;28;20190;-86
2022/04/26 15:46:18;;;;;;;4.87;4.47;;;13.20;99.90;;;;;;5021376;28;20179;-85
2022/04/26 15:48:48;;;;;;;9.77;5.13;;;13.20;99.90;;;;;;5030119;28;20391;-86
2022/04/26 15:51:18;;;;;;;6.13;5.17;;;13.20;99.90;;;;;;5019900;28;20178;-86
2022/04/26 15:53:48;;;;;;;5.40;4.90;;;13.20;99.90;;;;;;5038804;28;20219;-86
2022/04/26 15:56:14;;;;;;;5.93;5.33;;;13.10;99.90;;;;;;5032054;28;20210;-86
2022/04/26 15:58:42;;;;;;;5.37;4.87;;;13.00;99.90;;;;;;5039521;28;20189;-86
2022/04/26 16:01:09;;;;;;;5.23;4.73;;;12.80;99.90;;;;;;5035142;28;20183;-83
2022/04/26 16:03:36;;;;;;;4.97;4.47;;;12.70;99.90;;;;;;5034528;28;20184;-86
2022/04/26 16:06:03;;;;;;;4.93;4.43;;;12.70;99.90;;;;;;5032831;28;20334;-87
2022/04/26 16:08:32;;;;;;;4.70;3.70;;;12.80;99.90;;;;;;5043167;28;20272;-85
2022/04/26 16:22:07;;;;;;;4.13;3.77;;;12.60;99.90;;;;;;5045230;28;20212;-82
2022/04/26 16:24:38;;;;;;;4.23;3.80;;;12.50;99.90;;;;;;5037546;28;20689;-82
2022/04/26 16:27:08;;;;;;;5.20;4.37;;;12.50;99.90;;;;;;5029446;28;20249;-81
2022/04/26 16:29:34;;;;;;;5.27;4.77;;;12.60;99.90;;;;;;5028731;28;20199;-82
2022/04/26 16:32:01;;;;;;;5.33;4.17;;;12.50;99.90;;;;;;5023146;28;20170;-87
2022/04/26 16:34:28;;;;;;;6.13;4.70;;;12.40;99.90;;;;;;5018365;28;20196;-87
2022/04/26 16:36:54;;;;;;;4.60;4.20;;;12.30;99.90;;;;;;5018517;28;20196;-87
2022/04/26 16:39:20;;;;;;;5.03;4.57;;;12.20;99.90;;;;;;5018528;28;20184;-87
2022/04/26 16:41:51;;;;;;;5.10;4.60;;;12.20;99.90;;;;;;5018349;28;20192;-87
2022/04/26 16:44:18;;;;;;;5.23;4.73;;;12.10;99.90;;;;;;5018693;28;20213;-87
2022/04/26 16:46:44;;;;;;;5.33;4.57;;;12.10;99.90;;;;;;5018913;28;20216;-87
2022/04/26 16:49:10;;;;;;;6.13;5.17;;;12.10;99.90;;;;;;5018470;28;20179;-87
2022/04/26 16:51:36;;;;;;;5.37;4.87;;;12.00;99.90;;;;;;5035013;28;20199;-87
2022/04/26 16:54:02;;;;;;;5.70;5.20;;;11.90;99.90;;;;;;5018820;28;20191;-87
2022/04/26 16:56:28;;;;;;;2.93;2.70;;;11.80;99.90;;;;;;5018911;28;20182;-87
2022/04/26 16:58:54;;;;;;;2.07;1.87;;;11.70;99.90;;;;;;5018230;28;20183;-87
2022/04/26 17:01:20;;;;;;;1.70;1.40;;;11.60;99.90;;;;;;5018672;28;20176;-87
2022/04/26 17:03:46;;;;;;;1.70;1.60;;;11.50;99.90;;;;;;5018559;28;20632;-86
2022/04/26 17:06:12;;;;;;;1.70;1.60;;;11.30;99.90;;;;;;5014868;28;20586;-87
2022/04/26 17:08:38;;;;;;;1.53;1.30;;;11.20;99.90;;;;;;4999340;28;20181;-87
2022/04/26 17:13:48;;;;;;;1.33;1.23;;;11.00;99.90;;;;;;5031447;28;20186;-86
2022/04/26 17:16:14;;;;;;;2.03;1.50;;;11.00;99.90;;;;;;5018621;28;20550;-86
2022/04/26 17:18:41;;;;;;;3.13;2.00;;;11.00;99.90;;;;;;5018108;28;20232;-86
2022/04/26 17:21:08;;;;;;;1.97;1.60;;;10.90;99.90;;;;;;5002602;28;20244;-87
2022/04/26 17:23:52;;;;;;;1.70;1.60;;;10.90;99.90;;;;;;5019364;28;20244;-87
2022/04/26 17:26:18;;;;;;;2.17;1.30;;;10.90;99.90;;;;;;5021893;28;20195;-86
2022/04/26 17:28:44;;;;;;;1.70;1.40;;;10.90;99.90;;;;;;5021954;28;20201;-85